地図

経路データ

SID SEASON NUMBER BASIN SUBBASIN NAME ISO_TIME NATURE LAT LON WMO_WIND WMO_PRES WMO_AGENCY TRACK_TYPE DIST2LAND LANDFALL IFLAG USA_AGENCY USA_ATCF_ID USA_LAT USA_LON USA_RECORD USA_STATUS USA_WIND USA_PRES USA_SSHS USA_R34_NE USA_R34_SE USA_R34_SW USA_R34_NW USA_R50_NE USA_R50_SE USA_R50_SW USA_R50_NW USA_R64_NE USA_R64_SE USA_R64_SW USA_R64_NW USA_POCI USA_ROCI USA_RMW USA_EYE TOKYO_LAT TOKYO_LON TOKYO_GRADE TOKYO_WIND TOKYO_PRES TOKYO_R50_DIR TOKYO_R50_LONG TOKYO_R50_SHORT TOKYO_R30_DIR TOKYO_R30_LONG TOKYO_R30_SHORT TOKYO_LAND CMA_LAT CMA_LON CMA_CAT CMA_WIND CMA_PRES HKO_LAT HKO_LON HKO_CAT HKO_WIND HKO_PRES NEWDELHI_LAT NEWDELHI_LON NEWDELHI_GRADE NEWDELHI_WIND NEWDELHI_PRES NEWDELHI_CI NEWDELHI_DP NEWDELHI_POCI REUNION_LAT REUNION_LON REUNION_TYPE REUNION_WIND REUNION_PRES REUNION_TNUM REUNION_CI REUNION_RMW REUNION_R34_NE REUNION_R34_SE REUNION_R34_SW REUNION_R34_NW REUNION_R50_NE REUNION_R50_SE REUNION_R50_SW REUNION_R50_NW REUNION_R64_NE REUNION_R64_SE REUNION_R64_SW REUNION_R64_NW BOM_LAT BOM_LON BOM_TYPE BOM_WIND BOM_PRES BOM_TNUM BOM_CI BOM_RMW BOM_R34_NE BOM_R34_SE BOM_R34_SW BOM_R34_NW BOM_R50_NE BOM_R50_SE BOM_R50_SW BOM_R50_NW BOM_R64_NE BOM_R64_SE BOM_R64_SW BOM_R64_NW BOM_ROCI BOM_POCI BOM_EYE BOM_POS_METHOD BOM_PRES_METHOD NADI_LAT NADI_LON NADI_CAT NADI_WIND NADI_PRES WELLINGTON_LAT WELLINGTON_LON WELLINGTON_WIND WELLINGTON_PRES DS824_LAT DS824_LON DS824_STAGE DS824_WIND DS824_PRES TD9636_LAT TD9636_LON TD9636_STAGE TD9636_WIND TD9636_PRES TD9635_LAT TD9635_LON TD9635_WIND TD9635_PRES TD9635_ROCI NEUMANN_LAT NEUMANN_LON NEUMANN_CLASS NEUMANN_WIND NEUMANN_PRES MLC_LAT MLC_LON MLC_CLASS MLC_WIND MLC_PRES USA_GUST BOM_GUST BOM_GUST_PER REUNION_GUST REUNION_GUST_PER USA_SEAHGT USA_SEARAD_NE USA_SEARAD_SE USA_SEARAD_SW USA_SEARAD_NW STORM_SPEED STORM_DIR
1961053S08133 1961 23 SI WA NOT_NAMED 1961-02-21 23:00:00 NR -8.00000 133.000 main 160 160 __________O___ -1 -8.00000 133.000 7 1 0
1961053S08133 1961 23 SI WA NOT_NAMED 1961-02-22 00:00:00 TS -7.99280 132.984 main 160 147 O________OP___ jtwc_sh SH221961 -8.00000 133.000 -1 -8.00000 133.000 TC -7.98560 132.969 7 2 297
1961053S08133 1961 23 SI WA NOT_NAMED 1961-02-22 03:00:00 TS -7.94355 132.888 main 147 136 P________PP___ SH221961 -7.94251 132.898 -1 -7.94251 132.898 TC -7.94495 132.875 7 2 294
1961053S08133 1961 23 SI WA NOT_NAMED 1961-02-22 06:00:00 TS -7.90538 132.791 main 136 125 O________OP___ jtwc_sh SH221961 -7.90000 132.800 -1 -7.90000 132.800 TC -7.91345 132.777 7 2 286
1961053S08133 1961 23 SI WA NOT_NAMED 1961-02-22 09:00:00 TS -7.88933 132.696 main 125 115 P________PP___ SH221961 -7.88499 132.708 -1 -7.88499 132.708 TC -7.89800 132.673 7 2 274
1961053S08133 1961 23 SI WA NOT_NAMED 1961-02-22 11:00:00 TS -7.89444 132.626 main 115 115 P________PO___ SH221961 -7.89166 132.639 -1 -7.89166 132.639 TC -7.90000 132.600 7 2 263
1961053S08133 1961 23 SI WA NOT_NAMED 1961-02-22 12:00:00 TS -7.90179 132.587 main 115 104 O________OP___ jtwc_sh SH221961 -7.90000 132.600 -1 -7.90000 132.600 TC -7.90538 132.562 7 3 255
1961053S08133 1961 23 SI WA NOT_NAMED 1961-02-22 15:00:00 TS -7.94085 132.447 main 94 89 P________PP___ SH221961 -7.94251 132.450 -1 -7.94251 132.450 TC -7.93753 132.441 7 3 251
1961053S08133 1961 23 SI WA NOT_NAMED 1961-02-22 18:00:00 TS -7.99628 132.305 main 89 79 O________OP___ jtwc_sh SH221961 -8.00000 132.300 -1 -8.00000 132.300 TC -7.98885 132.315 7 3 247
1961053S08133 1961 23 SI WA NOT_NAMED 1961-02-22 21:00:00 TS -8.04602 132.195 main 79 78 P________PP___ SH221961 -8.04249 132.200 -1 -8.04249 132.200 TC -8.05308 132.186 7 2 243
1961053S08133 1961 23 SI WA NOT_NAMED 1961-02-22 23:00:00 TS -8.08508 132.124 main 78 78 P________PO___ SH221961 -8.07762 132.136 -1 -8.07762 132.136 TC -8.10000 132.100 7 2 239
1961053S08133 1961 23 SI WA NOT_NAMED 1961-02-23 00:00:00 TS -8.10639 132.086 main 78 69 O________OP___ jtwc_sh SH221961 -8.10000 132.100 -1 -8.10000 132.100 TC -8.11918 132.058 7 3 239
1961053S08133 1961 23 SI WA NOT_NAMED 1961-02-23 03:00:00 TS -8.19375 131.944 main 64 62 P________PP___ SH221961 -8.20001 131.950 -1 -8.20001 131.950 TC -8.18122 131.933 7 3 238
1961053S08133 1961 23 SI WA NOT_NAMED 1961-02-23 06:00:00 TS -8.28415 131.803 main 62 55 O________OP___ jtwc_sh SH221961 -8.30000 131.800 -1 -8.30000 131.800 TC -8.25244 131.808 7 3 239
1961053S08133 1961 23 SI WA NOT_NAMED 1961-02-23 09:00:00 TS -8.34031 131.694 main 55 55 P________PP___ SH221961 -8.34248 131.700 -1 -8.34248 131.700 TC -8.33595 131.683 7 2 241
1961053S08133 1961 23 SI WA NOT_NAMED 1961-02-23 11:00:00 TS -8.38302 131.624 main 55 55 P________PO___ SH221961 -8.37453 131.636 -1 -8.37453 131.636 TC -8.40000 131.600 7 3 236
1961053S08133 1961 23 SI WA NOT_NAMED 1961-02-23 12:00:00 TS -8.41330 131.584 main 55 49 O________OP___ jtwc_sh SH221961 -8.40000 131.600 -1 -8.40000 131.600 TC -8.43989 131.553 7 4 227
1961053S08133 1961 23 SI WA NOT_NAMED 1961-02-23 15:00:00 TS -8.55254 131.437 main 68 67 P________PP___ SH221961 -8.54251 131.450 -1 -8.54251 131.450 TC -8.57261 131.412 7 4 225
1961053S08133 1961 23 SI WA NOT_NAMED 1961-02-23 18:00:00 TS -8.70344 131.292 main 78 78 O________OP___ jtwc_sh SH221961 -8.70000 131.300 -1 -8.70000 131.300 TC -8.71033 131.277 7 4 224
1961053S08133 1961 23 SI WA NOT_NAMED 1961-02-23 21:00:00 TS -8.82142 131.177 main 89 89 P________PP___ SH221961 -8.81499 131.185 -1 -8.81499 131.185 TC -8.83427 131.161 7 3 224
1961053S08133 1961 23 SI WA NOT_NAMED 1961-02-23 23:00:00 TS -8.88333 131.117 main 100 100 P________PO___ SH221961 -8.87500 131.125 -1 -8.87500 131.125 TC -8.90000 131.100 7 2 224
1961053S08133 1961 23 SI WA NOT_NAMED 1961-02-24 00:00:00 TS -8.90724 131.093 main 100 100 O________OP___ jtwc_sh SH221961 -8.90000 131.100 -1 -8.90000 131.100 TC -8.92173 131.079 7 2 223
1961053S08133 1961 23 SI WA NOT_NAMED 1961-02-24 03:00:00 TS -8.96497 131.037 main 112 112 P________PP___ SH221961 -8.96500 131.035 -1 -8.96500 131.035 TC -8.96490 131.040 7 1 226
1961053S08133 1961 23 SI WA NOT_NAMED 1961-02-24 06:00:00 TS -8.99492 131.008 main 112 112 O________OP___ jtwc_sh SH221961 -9.00000 131.000 -1 -9.00000 131.000 TC -8.98477 131.023 7 0 234
1961053S08133 1961 23 SI WA NOT_NAMED 1961-02-24 09:00:00 TS -8.99794 131.004 main 112 112 P________PP___ SH221961 -9.00000 131.000 -1 -9.00000 131.000 TC -8.99381 131.012 7 0 0
1961053S08133 1961 23 SI WA NOT_NAMED 1961-02-24 11:00:00 TS -8.99794 131.002 main 112 112 P________PO___ SH221961 -8.99691 131.003 -1 -8.99691 131.003 TC -9.00000 131.000 7 0 0
1961053S08133 1961 23 SI WA NOT_NAMED 1961-02-24 12:00:00 TS -8.99949 130.998 main 112 112 O________OP___ jtwc_sh SH221961 -9.00000 131.000 -1 -9.00000 131.000 TC -8.99847 130.995 7 1 235
1961053S08133 1961 23 SI WA NOT_NAMED 1961-02-24 15:00:00 TS -9.02993 130.970 main 112 112 P________PP___ SH221961 -9.05000 130.965 -1 -9.05000 130.965 TC -8.98981 130.979 7 1 231
1961053S08133 1961 23 SI WA NOT_NAMED 1961-02-24 18:00:00 TS -9.06484 130.915 main 125 125 O________OP___ jtwc_sh SH221961 -9.10000 130.900 -1 -9.10000 130.900 TC -8.99450 130.946 7 1 255
1961053S08133 1961 23 SI WA NOT_NAMED 1961-02-24 21:00:00 TS -9.06419 130.840 main 127 127 P________PP___ SH221961 -9.07749 130.822 -1 -9.07749 130.822 TC -9.03759 130.876 7 2 262
1961053S08133 1961 23 SI WA NOT_NAMED 1961-02-24 23:00:00 TS -9.08652 130.765 main 127 127 P________PO___ SH221961 -9.07977 130.747 -1 -9.07977 130.747 TC -9.10000 130.800 7 3 248
1961053S08133 1961 23 SI WA NOT_NAMED 1961-02-25 00:00:00 TS -9.11566 130.716 main 130 130 O________OP___ jtwc_sh SH221961 -9.10000 130.700 -1 -9.10000 130.700 TC -9.14698 130.747 7 5 230
1961053S08133 1961 23 SI WA NOT_NAMED 1961-02-25 03:00:00 TS -9.28049 130.532 main 159 159 P________PP___ SH221961 -9.25500 130.522 -1 -9.25500 130.522 TC -9.33147 130.550 7 6 225
1961053S08133 1961 23 SI WA NOT_NAMED 1961-02-25 06:00:00 TS -9.52141 130.305 main 189 173 O________OP___ jtwc_sh SH221961 -9.50000 130.300 -1 -9.50000 130.300 TC -9.56423 130.314 7 7 222
1961053S08133 1961 23 SI WA NOT_NAMED 1961-02-25 09:00:00 TS -9.80280 130.054 main 173 159 P________PP___ SH221961 -9.79251 130.050 -1 -9.79251 130.050 TC -9.82336 130.063 7 8 221
1961053S08133 1961 23 SI WA NOT_NAMED 1961-02-25 11:00:00 TS -10.0003 129.887 main 159 152 P________PO___ SH221961 -10.0005 129.880 -1 -10.0005 129.880 TC -10.0000 129.900 7 8 219
1961053S08133 1961 23 SI WA NOT_NAMED 1961-02-25 12:00:00 TS -10.0958 129.808 main 152 134 O________OP___ jtwc_sh SH221961 -10.1000 129.800 -1 -10.1000 129.800 TC -10.0874 129.825 7 7 219
1961053S08133 1961 23 SI WA NOT_NAMED 1961-02-25 15:00:00 TS -10.3577 129.596 main 129 125 P________PP___ SH221961 -10.3575 129.592 -1 -10.3575 129.592 TC -10.3580 129.604 7 7 218
1961053S08133 1961 23 SI WA NOT_NAMED 1961-02-25 18:00:00 TS -10.6082 129.398 main 125 117 O________OP___ jtwc_sh SH221961 -10.6000 129.400 -1 -10.6000 129.400 TC -10.6245 129.395 7 7 218
1961053S08133 1961 23 SI WA NOT_NAMED 1961-02-25 21:00:00 TS -10.8700 129.193 main 119 119 P________PP___ SH221961 -10.8725 129.185 -1 -10.8725 129.185 TC -10.8650 129.208 7 6 218
1961053S08133 1961 23 SI WA NOT_NAMED 1961-02-25 23:00:00 TS -11.0225 129.070 main 122 122 P________PO___ SH221961 -11.0338 129.055 -1 -11.0338 129.055 TC -11.0000 129.100 7 6 219
1961053S08133 1961 23 SI WA NOT_NAMED 1961-02-26 00:00:00 TS -11.0836 129.019 main 128 124 O________OP___ jtwc_sh SH221961 -11.1000 129.000 -1 -11.1000 129.000 TC -11.0509 129.056 7 4 222
1961053S08133 1961 23 SI WA NOT_NAMED 1961-02-26 03:00:00 TS -11.2099 128.900 main 135 132 P________PP___ SH221961 -11.2300 128.877 -1 -11.2300 128.877 TC -11.1698 128.946 7 3 224
1961053S08133 1961 23 SI WA NOT_NAMED 1961-02-26 06:00:00 TS -11.2857 128.819 main 143 143 O________OP___ jtwc_sh SH221961 -11.3000 128.800 -1 -11.3000 128.800 TC -11.2570 128.856 7 2 227
1961053S08133 1961 23 SI WA NOT_NAMED 1961-02-26 09:00:00 TS -11.3409 128.756 main 143 143 P________PP___ SH221961 -11.3425 128.750 -1 -11.3425 128.750 TC -11.3376 128.767 7 2 227
1961053S08133 1961 23 SI WA NOT_NAMED 1961-02-26 11:00:00 TS -11.3830 128.713 main 153 153 P________PO___ SH221961 -11.3745 128.720 -1 -11.3745 128.720 TC -11.4000 128.700 1 2 215
1961053S08133 1961 23 SI WA NOT_NAMED 1961-02-26 12:00:00 TS -11.4131 128.693 main 153 152 O________OP___ jtwc_sh SH221961 -11.4000 128.700 -1 -11.4000 128.700 TC -11.4395 128.679 1 3 210
1961053S08133 1961 23 SI WA NOT_NAMED 1961-02-26 15:00:00 TS -11.5407 128.624 main 163 163 P________PP___ SH221961 -11.5275 128.630 -1 -11.5275 128.630 TC -11.5673 128.613 1 3 213
1961053S08133 1961 23 SI WA NOT_NAMED 1961-02-26 18:00:00 TS -11.7040 128.502 main 174 174 O________OP___ jtwc_sh SH221961 -11.7000 128.500 -1 -11.7000 128.500 TC -11.7120 128.506 1 5 221
1961053S08133 1961 23 SI WA NOT_NAMED 1961-02-26 21:00:00 TS -11.8872 128.319 main 196 196 P________PP___ SH221961 -11.8923 128.325 -1 -11.8923 128.325 TC -11.8770 128.308 1 6 230
1961053S08133 1961 23 SI WA NOT_NAMED 1961-02-26 23:00:00 TS -12.0204 128.121 main 218 213 P________PO___ SH221961 -12.0306 128.131 -1 -12.0306 128.131 TC -12.0000 128.100 1 8 238
1961053S08133 1961 23 SI WA NOT_NAMED 1961-02-27 00:00:00 TS -12.0916 127.988 main 213 173 O________OP___ jtwc_sh SH221961 -12.1000 128.000 -1 -12.1000 128.000 TC -12.0749 127.963 1 11 246
1961053S08133 1961 23 SI WA NOT_NAMED 1961-02-27 03:00:00 TS -12.3068 127.458 main 173 145 P________PP___ SH221961 -12.3001 127.460 -1 -12.3001 127.460 TC -12.3203 127.454 1 12 249
1961053S08133 1961 23 SI WA NOT_NAMED 1961-02-27 06:00:00 TS -12.5231 126.812 main 145 130 O________OP___ jtwc_sh SH221961 -12.5000 126.800 -1 -12.5000 126.800 TC -12.5694 126.836 1 13 251
1961053S08133 1961 23 SI WA NOT_NAMED 1961-02-27 09:00:00 TS -12.7492 126.163 main 144 127 P________PP___ SH221961 -12.7298 126.165 -1 -12.7298 126.165 TC -12.7880 126.159 1 14 252
1961053S08133 1961 23 SI WA NOT_NAMED 1961-02-27 11:00:00 TS -12.8707 125.717 main 130 130 P________PO___ SH221961 -12.8561 125.725 -1 -12.8561 125.725 TC -12.9000 125.700 1 14 257
1961053S08133 1961 23 SI WA NOT_NAMED 1961-02-27 12:00:00 TS -12.9069 125.489 main 139 139 O________OP___ jtwc_sh SH221961 -12.9000 125.500 -1 -12.9000 125.500 TC -12.9206 125.466 1 14 267
1961053S08133 1961 23 SI WA NOT_NAMED 1961-02-27 15:00:00 TS -12.9208 124.771 main 179 179 P________PP___ SH221961 -12.9150 124.785 -1 -12.9150 124.785 TC -12.9323 124.745 1 14 270
1961053S08133 1961 23 SI WA NOT_NAMED 1961-02-27 18:00:00 TS -12.9056 124.081 main 224 224 O________OP___ jtwc_sh SH221961 -12.9000 124.100 -1 -12.9000 124.100 TC -12.9168 124.044 1 13 269
1961053S08133 1961 23 SI WA NOT_NAMED 1961-02-27 21:00:00 TS -12.9488 123.460 main 264 264 P________PP___ SH221961 -12.9550 123.475 -1 -12.9550 123.475 TC -12.9364 123.429 1 11 263
1961053S08133 1961 23 SI WA NOT_NAMED 1961-02-27 23:00:00 TS -13.0257 123.124 main 289 282 P________PO___ SH221961 -13.0386 123.136 -1 -13.0386 123.136 TC -13.0000 123.100 1 10 253
1961053S08133 1961 23 SI WA NOT_NAMED 1961-02-28 00:00:00 TS -13.0872 122.992 main 290 290 O________OP___ jtwc_sh SH221961 -13.1000 123.000 -1 -13.1000 123.000 TC -13.0615 122.976 1 8 231
1961053S08133 1961 23 SI WA NOT_NAMED 1961-02-28 03:00:00 TS -13.3450 122.724 main 306 287 P________PP___ SH221961 -13.3623 122.732 -1 -13.3623 122.732 TC -13.3102 122.706 1 7 214
1961053S08133 1961 23 SI WA NOT_NAMED 1961-02-28 06:00:00 TS -13.6794 122.583 main 287 271 O________OP___ jtwc_sh SH221961 -13.7000 122.600 -1 -13.7000 122.600 TC -13.6381 122.550 1 7 199
1961053S08133 1961 23 SI WA NOT_NAMED 1961-02-28 09:00:00 TS -14.0209 122.480 main 271 252 P________PP___ SH221961 -14.0200 122.492 -1 -14.0200 122.492 TC -14.0229 122.455 1 7 195
1961053S08133 1961 23 SI WA NOT_NAMED 1961-02-28 11:00:00 TS -14.2757 122.422 main 252 241 P________PO___ SH221961 -14.2636 122.434 -1 -14.2636 122.434 TC -14.3000 122.400 4 8 193
1961053S08133 1961 23 SI WA NOT_NAMED 1961-02-28 12:00:00 TS -14.4143 122.384 main 241 194 O________OP___ jtwc_sh SH221961 -14.4000 122.400 -1 -14.4000 122.400 TC -14.4430 122.353 4 10 196
1961053S08133 1961 23 SI WA NOT_NAMED 1961-02-28 15:00:00 TS -14.8963 122.241 main 194 149 P________PP___ SH221961 -14.8925 122.250 -1 -14.8925 122.250 TC -14.9038 122.223 4 10 196
1961053S08133 1961 23 SI WA NOT_NAMED 1961-02-28 18:00:00 TS -15.3935 122.101 main 149 123 O________OP___ jtwc_sh SH221961 -15.4000 122.100 -1 -15.4000 122.100 TC -15.3805 122.103 4 10 194
1961053S08133 1961 23 SI WA NOT_NAMED 1961-02-28 21:00:00 TS -15.8358 121.995 main 123 108 P________PP___ SH221961 -15.8375 122.000 -1 -15.8375 122.000 TC -15.8325 121.984 4 9 193
1961053S08133 1961 23 SI WA NOT_NAMED 1961-02-28 23:00:00 TS -16.0927 121.924 main 108 101 P________PO___ SH221961 -16.0890 121.936 -1 -16.0890 121.936 TC -16.1000 121.900 2 8 196
1961053S08133 1961 23 SI WA NOT_NAMED 1961-03-01 00:00:00 TS -16.2042 121.886 main 101 85 O________OP___ jtwc_sh SH221961 -16.2000 121.900 -1 -16.2000 121.900 TC -16.2126 121.859 2 6 203
1961053S08133 1961 23 SI WA NOT_NAMED 1961-03-01 03:00:00 TS -16.4841 121.755 main 85 84 P________PP___ SH221961 -16.4725 121.765 -1 -16.4725 121.765 TC -16.5072 121.735 2 6 208
1961053S08133 1961 23 SI WA NOT_NAMED 1961-03-01 06:00:00 TS -16.7173 121.599 main 86 81 O________OP___ jtwc_sh SH221961 -16.7000 121.600 -1 -16.7000 121.600 TC -16.7519 121.596 2 6 214
1961053S08133 1961 23 SI WA NOT_NAMED 1961-03-01 09:00:00 TS -16.9602 121.425 main 91 91 P________PP___ SH221961 -16.9574 121.422 -1 -16.9574 121.422 TC -16.9656 121.431 2 6 217
1961053S08133 1961 23 SI WA NOT_NAMED 1961-03-01 11:00:00 TS -17.1149 121.287 main 98 98 P________PO___ SH221961 -17.1223 121.281 -1 -17.1223 121.281 TC -17.1000 121.300 2 6 222
1961053S08133 1961 23 SI WA NOT_NAMED 1961-03-01 12:00:00 TS -17.1920 121.206 main 105 105 O________OP___ jtwc_sh SH221961 -17.2000 121.200 -1 -17.2000 121.200 TC -17.1759 121.219 2 7 231
1961053S08133 1961 23 SI WA NOT_NAMED 1961-03-01 15:00:00 TS -17.4029 120.920 main 129 129 P________PP___ SH221961 -17.4075 120.907 -1 -17.4075 120.907 TC -17.3936 120.946 2 7 234
1961053S08133 1961 23 SI WA NOT_NAMED 1961-03-01 18:00:00 TS -17.5987 120.617 main 159 159 O________OP___ jtwc_sh SH221961 -17.6000 120.600 -1 -17.6000 120.600 TC -17.5962 120.652 2 7 234
1961053S08133 1961 23 SI WA NOT_NAMED 1961-03-01 21:00:00 TS -17.8045 120.341 main 172 167 P________PP___ SH221961 -17.8150 120.328 -1 -17.8150 120.328 TC -17.7835 120.368 2 6 232
1961053S08133 1961 23 SI WA NOT_NAMED 1961-03-01 23:00:00 TS -17.9298 120.180 main 176 176 P________PO___ SH221961 -17.9447 120.169 -1 -17.9447 120.169 TC -17.9000 120.200 2 6 230
1961053S08133 1961 23 SI WA NOT_NAMED 1961-03-02 00:00:00 TS -17.9831 120.111 main 181 181 O________OP___ jtwc_sh SH221961 -18.0000 120.100 -1 -18.0000 120.100 TC -17.9492 120.134 2 4 234
1961053S08133 1961 23 SI WA NOT_NAMED 1961-03-02 03:00:00 TS -18.0943 119.945 main 197 187 P________PP___ SH221961 -18.0999 119.935 -1 -18.0999 119.935 TC -18.0829 119.965 2 4 232
1961053S08133 1961 23 SI WA NOT_NAMED 1961-03-02 06:00:00 TS -18.2050 119.808 main 192 175 O________OP___ jtwc_sh SH221961 -18.2000 119.800 -1 -18.2000 119.800 TC -18.2151 119.824 2 4 224
1961053S08133 1961 23 SI WA NOT_NAMED 1961-03-02 09:00:00 TS -18.3703 119.664 main 175 168 P________PP___ SH221961 -18.3700 119.650 -1 -18.3700 119.650 TC -18.3708 119.692 2 5 217
1961053S08133 1961 23 SI WA NOT_NAMED 1961-03-02 11:00:00 TS -18.5111 119.567 main 168 159 P________PO___ SH221961 -18.5167 119.550 -1 -18.5167 119.550 TC -18.5000 119.600 2 5 212
1961053S08133 1961 23 SI WA NOT_NAMED 1961-03-02 12:00:00 TS -18.5937 119.517 main 159 129 O________OP___ jtwc_sh SH221961 -18.6000 119.500 -1 -18.6000 119.500 TC -18.5810 119.552 2 6 206
1961053S08133 1961 23 SI WA NOT_NAMED 1961-03-02 15:00:00 TS -18.8759 119.374 main 129 100 P________PP___ SH221961 -18.8850 119.357 -1 -18.8850 119.357 TC -18.8578 119.407 2 7 206
1961053S08133 1961 23 SI WA NOT_NAMED 1961-03-02 18:00:00 TS -19.1893 119.215 main 100 67 O________OP___ jtwc_sh SH221961 -19.2000 119.200 -1 -19.2000 119.200 TC -19.1679 119.246 2 7 207
1961053S08133 1961 23 SI WA NOT_NAMED 1961-03-02 21:00:00 TS -19.5015 119.033 main 67 49 P________PP___ SH221961 -19.5074 119.022 -1 -19.5074 119.022 TC -19.4897 119.053 2 7 211
1961053S08133 1961 23 SI WA NOT_NAMED 1961-03-02 23:00:00 TS -19.7038 118.887 main 49 45 P________PO___ SH221961 -19.7057 118.881 -1 -19.7057 118.881 TC -19.7000 118.900 4 7 216
1961053S08133 1961 23 SI WA NOT_NAMED 1961-03-03 00:00:00 TS -19.7992 118.805 main 45 44 O________OP___ jtwc_sh SH221961 -19.8000 118.800 -1 -19.8000 118.800 TC -19.7975 118.815 4 7 224
1961053S08133 1961 23 SI WA NOT_NAMED 1961-03-03 03:00:00 TS -20.0618 118.525 main 33 11 P________PP___ SH221961 -20.0500 118.522 -1 -20.0500 118.522 TC -20.0854 118.530 4 8 227
1961053S08133 1961 23 SI WA NOT_NAMED 1961-03-03 06:00:00 TS -20.3214 118.202 main 11 0 O________OP___ jtwc_sh SH221961 -20.3000 118.200 -1 -20.3000 118.200 TC -20.3641 118.205 4 8 228
1961053S08133 1961 23 SI WA NOT_NAMED 1961-03-03 09:00:00 TS -20.6151 117.860 main 0 0 P________PP___ SH221961 -20.6074 117.865 -1 -20.6074 117.865 TC -20.6306 117.849 4 9 229
1961053S08133 1961 23 SI WA NOT_NAMED 1961-03-03 11:00:00 TS -20.8058 117.617 main 0 0 P________PO___ SH221961 -20.8087 117.625 -1 -20.8087 117.625 TC -20.8000 117.600 2 9 231
1961053S08133 1961 23 SI WA NOT_NAMED 1961-03-03 12:00:00 TS -20.8918 117.493 main 0 0 O________OP___ jtwc_sh SH221961 -20.9000 117.500 -1 -20.9000 117.500 TC -20.8755 117.480 2 8 238
1961053S08133 1961 23 SI WA NOT_NAMED 1961-03-03 15:00:00 TS -21.1011 117.107 main 0 0 P________PP___ SH221961 -21.1075 117.107 -1 -21.1075 117.107 TC -21.0883 117.105 2 8 241
1961053S08133 1961 23 SI WA NOT_NAMED 1961-03-03 18:00:00 TS -21.2993 116.703 main 0 0 O________OP___ jtwc_sh SH221961 -21.3000 116.700 -1 -21.3000 116.700 TC -21.2980 116.709 2 9 240
1961053S08133 1961 23 SI WA NOT_NAMED 1961-03-03 21:00:00 TS -21.5320 116.307 main 0 0 P________PP___ SH221961 -21.5348 116.315 -1 -21.5348 116.315 TC -21.5264 116.291 2 9 237
1961053S08133 1961 23 SI WA NOT_NAMED 1961-03-03 23:00:00 TS -21.7055 116.030 main 0 0 P________PO___ SH221961 -21.7082 116.045 -1 -21.7082 116.045 TC -21.7000 116.000 2 10 236
1961053S08133 1961 23 SI WA NOT_NAMED 1961-03-04 00:00:00 TS -21.7947 115.881 main 0 0 O________OP___ jtwc_sh SH221961 -21.8000 115.900 -1 -21.8000 115.900 TC -21.7841 115.842 2 10 239
1961053S08133 1961 23 SI WA NOT_NAMED 1961-03-04 03:00:00 TS -22.0658 115.387 main 0 0 P________PP___ SH221961 -22.0700 115.407 -1 -22.0700 115.407 TC -22.0572 115.346 2 11 237
1961053S08133 1961 23 SI WA NOT_NAMED 1961-03-04 06:00:00 TS -22.3936 114.882 main 0 0 O________OP___ jtwc_sh SH221961 -22.4000 114.900 -1 -22.4000 114.900 TC -22.3808 114.847 2 12 231
1961053S08133 1961 23 SI WA NOT_NAMED 1961-03-04 09:00:00 TS -22.7965 114.411 main 0 0 P________PP___ SH221961 -22.8049 114.427 -1 -22.8049 114.427 TC -22.7798 114.378 2 12 224
1961053S08133 1961 23 SI WA NOT_NAMED 1961-03-04 11:00:00 TS -23.1167 114.124 main 0 0 P________PO___ SH221961 -23.1250 114.136 -1 -23.1250 114.136 TC -23.1000 114.100 2 13 218
1961053S08133 1961 23 SI WA NOT_NAMED 1961-03-04 12:00:00 TS -23.2916 113.990 main 0 0 O________OP___ jtwc_sh SH221961 -23.3000 114.000 -1 -23.3000 114.000 TC -23.2789 113.974 2 13 210
1961053S08133 1961 23 SI WA NOT_NAMED 1961-03-04 15:00:00 TS -23.8805 113.641 main 0 0 P________PP___ SH221961 -23.8776 113.633 -1 -23.8776 113.633 TC -23.8834 113.648 2 14 205
1961053S08133 1961 23 SI WA NOT_NAMED 1961-03-04 18:00:00 TS -24.5400 113.348 main 15 15 O________OP___ jtwc_sh SH221961 -24.5000 113.300 -1 -24.5000 113.300 TC -24.5666 113.380 2 15 198
1961053S08133 1961 23 SI WA NOT_NAMED 1961-03-04 21:00:00 NR -25.2991 113.147 main 52 32 __________P___ SH221961 -1 TC -25.2991 113.147 2 16 194
1961053S08133 1961 23 SI WA NOT_NAMED 1961-03-04 23:00:00 NR -25.8000 113.000 main 41 __________O___ SH221961 -1 TC -25.8000 113.000 2 16 194

IBTrACS Databaseについて

本データベースは、米国NOAAが公開する1842年以降の世界の熱帯低気圧のベストトラックデータアーカイブInternational Best Track Archive for Climate Stewardship (IBTrACS)を、ウェブで閲覧しやすい形式に変換したものです。

最終更新日:2021-12-03